Kendall, Washington
Current Conditions -  °F | °C
As of 7:00 AM on Thursday 30 Oct 2014 (Local Time) from CYXX Reporting Station
Broken Clouds Broken Clouds  
Wind Chill: 11°   Ceiling: 8000
Heat Index: 11°   Visibility: 10mi
Dew Point:   Wind: 7mph
Humidity: 82%   Direction: 40°NE
Pressure: 29.9"   Gusts: NA
Location:  48.8512°N, 121.903°W
Report Text: CYXX 301400Z 04006KT 10SM FEW030 SCT040 BKN080 11/08 A2990 RMK SC2SC2AC3 SLP125
Loading
Personal Weather Stations






























Interactive Weather Map
Tropical Storm Tracking
New forecast layout! Learn more

10-Day Weather Forecast

Advertisements
Track Severe Weather on mobile